createdAt,value
2019-02-09T00:04:12.310Z,4.23
2019-02-09T00:09:17.535Z,4.32
2019-02-09T00:14:22.856Z,4.28
2019-02-09T00:19:28.484Z,4.35
2019-02-09T00:24:33.741Z,4.43
2019-02-09T00:29:46.130Z,4.39
2019-02-09T00:34:47.043Z,4.45
2019-02-09T00:39:52.982Z,4.45
2019-02-09T00:44:58.367Z,4.22
2019-02-09T00:50:07.425Z,4.16
2019-02-09T01:00:25.393Z,4.04
2019-02-09T01:05:33.413Z,4.00
2019-02-09T01:10:38.987Z,3.95
2019-02-09T01:15:44.635Z,3.90
2019-02-09T01:20:50.015Z,3.97
2019-02-09T01:25:55.359Z,3.93
2019-02-09T01:31:00.731Z,3.94
2019-02-09T01:36:06.698Z,3.96
2019-02-09T01:41:12.455Z,3.94
2019-02-09T01:46:17.805Z,3.99
2019-02-09T01:51:23.263Z,3.93
2019-02-09T01:56:28.733Z,3.95
2019-02-09T02:01:34.201Z,3.93
2019-02-09T02:06:39.777Z,3.96
2019-02-09T02:11:45.316Z,4.01
2019-02-09T02:16:50.680Z,3.99
2019-02-09T02:21:56.240Z,4.04
2019-02-09T02:27:01.805Z,4.02
2019-02-09T02:32:07.167Z,3.98
2019-02-09T02:37:12.748Z,4.00
2019-02-09T02:42:18.194Z,3.98
2019-02-09T02:47:23.364Z,3.99
2019-02-09T02:52:28.914Z,3.98
2019-02-09T02:57:34.362Z,3.99
2019-02-09T03:02:39.789Z,4.02
2019-02-09T03:07:46.292Z,3.86
2019-02-09T03:12:51.915Z,3.88
2019-02-09T03:17:57.688Z,3.87
2019-02-09T03:23:05.831Z,3.92
2019-02-09T03:28:11.218Z,3.81
2019-02-09T03:33:16.714Z,3.81
2019-02-09T03:38:22.348Z,3.83
2019-02-09T03:43:27.784Z,3.85
2019-02-09T03:48:33.192Z,3.84
2019-02-09T03:53:38.477Z,3.83
2019-02-09T03:58:43.804Z,3.82
2019-02-09T04:03:49.246Z,3.84
2019-02-09T04:08:54.718Z,3.90
2019-02-09T04:14:00.062Z,3.87
2019-02-09T04:19:05.601Z,3.88
2019-02-09T04:24:11.084Z,3.91
2019-02-09T04:29:16.601Z,3.93
2019-02-09T04:34:21.811Z,3.89
2019-02-09T04:39:27.446Z,3.96
2019-02-09T04:44:32.965Z,3.88
2019-02-09T04:49:38.611Z,4.00
2019-02-09T04:54:44.170Z,3.93
2019-02-09T04:59:49.946Z,3.95
2019-02-09T05:04:55.653Z,4.00
2019-02-09T05:10:01.303Z,3.97
2019-02-09T05:15:12.489Z,4.02
2019-02-09T05:20:20.379Z,4.03
2019-02-09T05:25:25.851Z,4.15
2019-02-09T05:30:31.218Z,4.08
2019-02-09T05:35:36.558Z,4.03
2019-02-09T05:40:42.350Z,4.08
2019-02-09T05:45:47.526Z,4.12
2019-02-09T05:50:52.747Z,4.19
2019-02-09T05:55:58.111Z,4.16
2019-02-09T06:01:03.570Z,4.21
2019-02-09T06:06:09.154Z,4.16
2019-02-09T06:11:14.624Z,4.28
2019-02-09T06:16:19.872Z,4.23
2019-02-09T06:21:25.204Z,4.30
2019-02-09T06:26:30.633Z,4.32
2019-02-09T06:31:41.045Z,4.26
2019-02-09T06:36:42.982Z,4.22
2019-02-09T06:41:48.475Z,4.24
2019-02-09T06:46:53.946Z,4.23
2019-02-09T06:51:59.416Z,4.27
2019-02-09T06:57:05.541Z,4.19
2019-02-09T07:02:10.676Z,4.06
2019-02-09T07:07:16.394Z,4.11
2019-02-09T07:12:22.298Z,4.23
2019-02-09T07:17:27.838Z,4.16
2019-02-09T07:22:33.196Z,4.16
2019-02-09T07:27:39.162Z,4.13
2019-02-09T07:32:44.468Z,4.16
2019-02-09T07:37:49.722Z,4.15
2019-02-09T07:42:55.829Z,4.14
2019-02-09T07:48:01.173Z,4.27
2019-02-09T07:53:06.768Z,4.35
2019-02-09T07:58:12.012Z,4.23
2019-02-09T08:03:17.611Z,4.30
2019-02-09T08:08:22.972Z,4.35
2019-02-09T08:13:28.432Z,4.48
2019-02-09T08:18:33.735Z,4.43
2019-02-09T08:23:39.135Z,4.55
2019-02-09T08:28:44.399Z,4.65
2019-02-09T08:33:49.911Z,4.70
2019-02-09T08:38:55.200Z,4.68
2019-02-09T08:44:00.810Z,4.85
2019-02-09T08:49:05.998Z,4.85
2019-02-09T08:54:11.595Z,4.77
2019-02-09T08:59:16.971Z,4.92
2019-02-09T09:04:22.418Z,4.94
2019-02-09T09:09:27.984Z,5.12
2019-02-09T09:14:33.864Z,5.16
2019-02-09T09:19:39.204Z,5.21
2019-02-09T09:24:44.339Z,5.18
2019-02-09T09:29:49.561Z,5.07
2019-02-09T09:34:54.971Z,4.99
2019-02-09T09:40:00.246Z,5.15
2019-02-09T09:45:11.562Z,5.19
2019-02-09T09:50:20.364Z,5.17
2019-02-09T09:55:26.038Z,5.31
2019-02-09T10:00:31.499Z,5.37
2019-02-09T10:05:37.163Z,5.45
2019-02-09T10:10:42.846Z,5.46
2019-02-09T10:15:48.161Z,5.64
2019-02-09T10:20:53.967Z,5.78
2019-02-09T10:25:59.527Z,5.88
2019-02-09T10:31:05.059Z,5.78
2019-02-09T10:36:11.605Z,6.10
2019-02-09T10:41:17.016Z,6.10
2019-02-09T10:46:23.298Z,6.26
2019-02-09T10:51:28.452Z,6.33
2019-02-09T10:56:33.628Z,6.41
2019-02-09T11:01:39.614Z,6.56
2019-02-09T11:06:44.849Z,6.72
2019-02-09T11:11:50.067Z,6.75
2019-02-09T11:16:55.675Z,6.61
2019-02-09T11:22:01.055Z,6.76
2019-02-09T11:27:06.386Z,7.15
2019-02-09T11:32:11.784Z,7.42
2019-02-09T11:37:17.095Z,7.01
2019-02-09T11:42:22.556Z,6.76
2019-02-09T11:47:28.163Z,6.70
2019-02-09T11:52:33.423Z,6.35
2019-02-09T11:57:38.857Z,6.26
2019-02-09T12:02:46.002Z,6.34
2019-02-09T12:07:51.434Z,6.19
2019-02-09T12:12:57.128Z,6.35
2019-02-09T12:18:02.946Z,6.54
2019-02-09T12:23:08.642Z,6.61
2019-02-09T12:28:14.585Z,6.64
2019-02-09T12:33:23.126Z,6.72
2019-02-09T12:38:27.168Z,6.56
2019-02-09T12:43:32.711Z,6.57
2019-02-09T12:48:37.826Z,6.64
2019-02-09T12:53:43.112Z,6.47
2019-02-09T12:58:48.299Z,6.41
2019-02-09T13:03:53.733Z,6.41
2019-02-09T13:08:59.187Z,6.22
2019-02-09T13:14:05.167Z,6.09
2019-02-09T13:19:10.331Z,5.96
2019-02-09T13:24:15.632Z,6.03
2019-02-09T13:29:20.776Z,6.39
2019-02-09T13:34:25.785Z,6.27
2019-02-09T13:39:30.940Z,6.58
2019-02-09T13:44:36.499Z,6.44
2019-02-09T13:49:41.854Z,6.29
2019-02-09T13:54:47.007Z,6.21
2019-02-09T13:59:52.475Z,6.19
2019-02-09T14:04:57.927Z,5.99
2019-02-09T14:10:03.714Z,5.82
2019-02-09T14:15:23.596Z,5.96
2019-02-09T14:20:29.758Z,5.85
2019-02-09T14:25:35.756Z,5.93
2019-02-09T14:30:41.638Z,5.90
2019-02-09T14:35:46.953Z,6.07
2019-02-09T14:40:52.517Z,6.14
2019-02-09T14:45:57.867Z,6.26
2019-02-09T14:51:03.465Z,6.25
2019-02-09T14:56:09.280Z,6.31
2019-02-09T15:01:15.208Z,6.35
2019-02-09T15:06:20.341Z,6.26
2019-02-09T15:11:25.841Z,6.27
2019-02-09T15:16:32.093Z,6.16
2019-02-09T15:21:37.366Z,6.24
2019-02-09T15:26:42.705Z,6.15
2019-02-09T15:31:48.170Z,5.98
2019-02-09T15:36:53.442Z,6.03
2019-02-09T15:41:58.682Z,6.12
2019-02-09T15:47:05.173Z,6.19
2019-02-09T15:52:10.203Z,6.27
2019-02-09T15:57:15.797Z,6.33
2019-02-09T16:02:21.142Z,6.33
2019-02-09T16:07:26.402Z,6.43
2019-02-09T16:12:31.965Z,6.31
2019-02-09T16:17:37.043Z,6.28
2019-02-09T16:22:42.482Z,6.18
2019-02-09T16:27:47.938Z,6.14
2019-02-09T16:32:53.393Z,6.10
2019-02-09T16:37:58.881Z,6.01
2019-02-09T16:43:05.642Z,6.00
2019-02-09T16:48:12.233Z,6.02
2019-02-09T16:53:17.502Z,5.97
2019-02-09T16:58:22.966Z,5.95
2019-02-09T17:03:28.216Z,5.86
2019-02-09T17:08:33.585Z,5.90
2019-02-09T17:13:39.243Z,5.92
2019-02-09T17:18:44.615Z,5.92
2019-02-09T17:23:49.956Z,6.03
2019-02-09T17:28:55.199Z,5.96
2019-02-09T17:34:00.679Z,5.94
2019-02-09T17:39:08.297Z,5.91
2019-02-09T17:44:13.644Z,5.82
2019-02-09T17:49:18.779Z,5.81
2019-02-09T17:54:24.254Z,5.68
2019-02-09T17:59:29.626Z,5.62
2019-02-09T18:04:34.918Z,5.69
2019-02-09T18:09:40.155Z,5.52
2019-02-09T18:14:45.936Z,5.49
2019-02-09T18:19:51.226Z,5.45
2019-02-09T18:24:56.419Z,5.45
2019-02-09T18:30:01.773Z,5.44
2019-02-09T18:35:08.868Z,5.43
2019-02-09T18:40:27.848Z,5.43
2019-02-09T18:45:34.246Z,5.40
2019-02-09T18:50:39.686Z,5.39
2019-02-09T18:55:45.095Z,5.33
2019-02-09T19:00:50.920Z,5.26
2019-02-09T19:05:56.687Z,5.19
2019-02-09T19:11:01.793Z,5.24
2019-02-09T19:16:07.918Z,5.29
2019-02-09T19:21:14.508Z,5.46
2019-02-09T19:26:19.813Z,5.44
2019-02-09T19:31:25.006Z,5.41
2019-02-09T19:36:30.033Z,5.39
2019-02-09T19:41:35.435Z,5.32
2019-02-09T19:46:40.647Z,5.24
2019-02-09T19:51:45.676Z,5.29
2019-02-09T19:56:51.297Z,5.28
2019-02-09T20:01:56.780Z,5.13
2019-02-09T20:07:01.905Z,5.11
2019-02-09T20:12:07.267Z,5.05
2019-02-09T20:17:12.404Z,5.05
2019-02-09T20:22:17.515Z,5.02
2019-02-09T20:27:22.831Z,4.97
2019-02-09T20:32:28.060Z,4.99
2019-02-09T20:37:33.354Z,5.00
2019-02-09T20:42:38.819Z,5.03
2019-02-09T20:47:48.627Z,5.09
2019-02-09T20:52:51.166Z,5.10
2019-02-09T20:57:56.733Z,5.23
2019-02-09T21:03:02.017Z,5.57
2019-02-09T21:08:07.732Z,5.59
2019-02-09T21:13:13.226Z,5.45
2019-02-09T21:18:18.577Z,5.49
2019-02-09T21:23:23.814Z,5.61
2019-02-09T21:28:29.293Z,5.63
2019-02-09T21:33:35.165Z,5.63
2019-02-09T21:38:40.543Z,5.61
2019-02-09T21:43:45.984Z,5.67
2019-02-09T21:48:51.146Z,5.94
2019-02-09T21:53:56.608Z,6.03
2019-02-09T21:59:01.930Z,6.11
2019-02-09T22:04:07.609Z,6.10
2019-02-09T22:09:13.181Z,6.11
2019-02-09T22:14:18.543Z,6.08
2019-02-09T22:19:23.984Z,6.26
2019-02-09T22:24:29.350Z,6.34
2019-02-09T22:29:34.739Z,6.47
2019-02-09T22:34:40.312Z,6.47
2019-02-09T22:39:46.883Z,6.58
2019-02-09T22:44:52.091Z,6.60
2019-02-09T22:49:57.396Z,6.60
2019-02-09T22:55:02.875Z,6.61
2019-02-09T23:00:35.392Z,6.63
2019-02-09T23:05:47.252Z,6.58
2019-02-09T23:10:52.612Z,6.46
2019-02-09T23:15:58.182Z,6.41
2019-02-09T23:21:03.432Z,6.30
2019-02-09T23:26:08.994Z,6.37
2019-02-09T23:31:14.587Z,6.38
2019-02-09T23:36:21.165Z,6.29
2019-02-09T23:41:26.525Z,6.22
2019-02-09T23:46:31.775Z,6.16
2019-02-09T23:51:37.119Z,6.11
2019-02-09T23:56:42.285Z,6.10
